KSBP/SBP METAR and TAF weather

Enter ICAO airport designator
Station Type Date Time Source
KSBP METAR 2021/08/05 02:56 UTC NOAA

KSBP 050256Z 31010KT 10SM CLR 16/12 A2994 RMK AO2 SLP138 T01560122 51006


Station Type Date Time Source
KSBP Decoded METAR 2021/08/05 02:56 UTC NOAA

SAN LUIS OBISPO MC CHESNEY, CA, United States (KSBP) 35-14N 120-38W 59M
Aug 04, 2021 - 10:56 PM EDT / 2021.08.05 0256 UTC
Wind: from the NW (310 degrees) at 12 MPH (10 KT):0
Visibility: 10 mile(s):0
Sky conditions: clear
Temperature: 60.1 F (15.6 C)
Dew Point: 54.0 F (12.2 C)
Relative Humidity: 80%
Pressure (altimeter): 29.94 in. Hg (1013 hPa)
Pressure tendency: 0.02 inches (0.6 hPa) higher than three hours ago
ob: KSBP 050256Z 31010KT 10SM CLR 16/12 A2994 RMK AO2 SLP138 T01560122 51006
cycle: 3

Station Type Date Time Source
KSBP TAF 2021/08/04 18:48 UTC NOAA

TAF KSBP 041746Z 0418/0518 30010KT P6SM SKC
FM042100 31015KT P6SM SKC
FM050500 30008KT P6SM BKN007
FM051000 30005KT P6SM BKN004
FM051600 32010KT P6SM SCT007

Example: see airport list